Kezdőlap
METAR-TAF:

METAR-TAF

Repülőterek :

Fitchburg, Massachusetts, Amerikai Egyesült Államok

földrajzi szélesség: 42-33-07N, földrajzi hosszúság: 071-45-21W, magasság: 106 m

Jelenlegi meteorológiai megfigyelések

A jelentés 38 perccel ezelõtt készült, 17:52 UTC
Nyugati szél 11 kt széllökések: 18 kt
Hőmérséklet 10°C
Páratartalom 29%
Légköri nyomás 1019 hPa
Látótávolság: 16.1 km
Derült ég

METAR: KFIT 231752Z AUTO 27011G18KT 10SM CLR 10/M07 A3008 RMK AO2 SLP188 T01001072 10100 21044 58019

Idő: 13:30 (18:30 UTC)


TAF: hiányzik

Meteorológiai megfigyelések és előrejelzések több, mint 4000 repülőtéren (METAR és TAF jelentéseket).

A térképen piros és sárga pontok jelzik az elérhető meteorológiai állomásokat.

Mozgassa az egeret a pont fölött, hogy megjelenjen az állomás neve.

Azután kattintson az időjárási megfigyelések és előrejelzések megtekintéséhez.

A térkép megváltoztatása: kattintson a fekete keresztel jelölt zöld gombra ráközelítéshez, a vonallal jelölt zöld gombra távolításhoz, vagy a zöld nyilakra a szomszédos térképek eléréséhez.


METAR-TAF: